createdAt,value
2022-11-17T06:54:09.874Z,-0.71
2022-11-17T06:56:36.924Z,-0.53
2022-11-17T06:59:03.979Z,-0.58
2022-11-17T07:01:30.881Z,-0.46
2022-11-17T07:03:57.807Z,-0.42
2022-11-17T07:06:24.872Z,-0.42
2022-11-17T07:08:51.787Z,-0.44
2022-11-17T07:11:18.764Z,-0.39
2022-11-17T07:13:45.913Z,-0.52
2022-11-17T07:16:21.740Z,-0.44
2022-11-17T07:18:50.490Z,-0.41
2022-11-17T07:21:18.132Z,-0.43
2022-11-17T07:23:45.945Z,-0.34
2022-11-17T07:26:14.330Z,-0.38
2022-11-17T07:28:41.396Z,-0.31
2022-11-17T07:31:09.786Z,-0.31
2022-11-17T07:33:37.281Z,-0.14
2022-11-17T07:36:06.320Z,-0.42
2022-11-17T07:38:35.434Z,-0.22
2022-11-17T07:41:03.067Z,-0.44
2022-11-17T07:43:30.059Z,-0.43
2022-11-17T07:45:57.328Z,-0.51
2022-11-17T07:48:24.334Z,-0.39
2022-11-17T07:50:51.749Z,-0.57
2022-11-17T07:53:18.690Z,-0.55
2022-11-17T07:55:45.736Z,-0.31
2022-11-17T07:58:12.588Z,-0.24
2022-11-17T08:00:39.608Z,-0.22
2022-11-17T08:03:06.802Z,-0.10
2022-11-17T08:05:43.243Z,0.02
2022-11-17T08:08:13.191Z,-0.29
2022-11-17T08:10:40.366Z,-0.20
2022-11-17T08:13:07.772Z,-0.08
2022-11-17T08:15:36.247Z,0.11
2022-11-17T08:18:03.711Z,0.32
2022-11-17T08:20:30.648Z,0.61
2022-11-17T08:22:57.637Z,0.41
2022-11-17T08:25:27.155Z,0.37
2022-11-17T08:27:58.357Z,0.61
2022-11-17T08:30:26.122Z,0.95
2022-11-17T08:32:54.802Z,1.06
2022-11-17T08:35:25.136Z,0.69
2022-11-17T08:37:52.959Z,0.61
2022-11-17T08:40:20.388Z,0.16
2022-11-17T08:42:59.167Z,-0.08
2022-11-17T08:45:28.065Z,0.23
2022-11-17T08:47:56.758Z,0.13
2022-11-17T08:50:23.727Z,0.13
2022-11-17T08:52:52.547Z,0.05
2022-11-17T08:55:19.609Z,0.11
2022-11-17T08:57:46.666Z,0.01
2022-11-17T09:00:14.309Z,0.04
2022-11-17T09:02:42.511Z,-0.23
2022-11-17T09:05:10.211Z,-0.37
2022-11-17T09:07:37.232Z,-0.22
2022-11-17T09:10:06.787Z,-0.03
2022-11-17T09:12:33.764Z,-0.01
2022-11-17T09:15:00.724Z,0.18
2022-11-17T09:17:27.662Z,0.23
2022-11-17T09:19:54.609Z,0.23
2022-11-17T09:22:21.482Z,-0.07
2022-11-17T09:24:48.402Z,-0.11
2022-11-17T09:27:15.435Z,0.22
2022-11-17T09:29:42.324Z,0.49
2022-11-17T09:32:09.241Z,0.31
2022-11-17T09:34:36.331Z,0.68
2022-11-17T09:37:03.405Z,0.86
2022-11-17T09:39:30.389Z,2.06
2022-11-17T09:41:57.682Z,2.11
2022-11-17T09:44:40.505Z,2.77
2022-11-17T09:47:07.423Z,2.38
2022-11-17T09:49:58.341Z,2.80
2022-11-17T09:52:33.117Z,3.38
2022-11-17T09:55:17.673Z,3.28
2022-11-17T09:57:56.650Z,3.68
2022-11-17T10:00:25.455Z,3.10
2022-11-17T10:02:54.299Z,2.48
2022-11-17T10:05:31.048Z,1.98
2022-11-17T10:08:04.802Z,1.96
2022-11-17T10:10:36.935Z,1.63
2022-11-17T10:13:11.485Z,1.33
2022-11-17T10:15:45.856Z,1.03
2022-11-17T10:18:14.923Z,1.14
2022-11-17T10:20:43.579Z,1.06
2022-11-17T10:23:15.076Z,0.95
2022-11-17T10:25:45.090Z,1.06
2022-11-17T10:28:32.993Z,0.94
2022-11-17T10:31:10.573Z,0.99
2022-11-17T10:33:46.662Z,0.84
2022-11-17T10:36:20.102Z,0.70
2022-11-17T10:38:50.529Z,0.71
2022-11-17T10:41:39.112Z,0.58
2022-11-17T10:44:26.438Z,0.27
2022-11-17T10:47:02.078Z,0.40
2022-11-17T10:49:34.107Z,0.25
2022-11-17T10:52:16.773Z,0.21
2022-11-17T10:54:44.625Z,0.30
2022-11-17T10:57:21.573Z,0.26
2022-11-17T10:59:57.073Z,0.22
2022-11-17T11:02:34.778Z,0.15
2022-11-17T11:05:09.791Z,0.27
2022-11-17T11:07:38.101Z,0.27
2022-11-17T11:10:15.189Z,0.37
2022-11-17T11:13:02.072Z,0.29
2022-11-17T11:15:34.326Z,0.22
2022-11-17T11:18:01.999Z,0.14
2022-11-17T11:20:55.156Z,0.07
2022-11-17T11:23:27.773Z,0.15
2022-11-17T11:26:06.850Z,0.03
2022-11-17T11:28:49.065Z,-0.03
2022-11-17T11:31:34.716Z,-0.03
2022-11-17T11:34:04.512Z,-0.09
2022-11-17T11:36:44.486Z,0.02
2022-11-17T11:39:30.094Z,-0.04
2022-11-17T11:41:56.981Z,-0.08
2022-11-17T11:44:45.038Z,-0.15
2022-11-17T11:47:20.833Z,-0.24
2022-11-17T11:50:13.076Z,-0.49
2022-11-17T11:52:46.530Z,-0.49
2022-11-17T11:55:29.224Z,-0.54
2022-11-17T11:58:18.291Z,-0.41
2022-11-17T12:00:46.929Z,-0.52
2022-11-17T12:03:49.240Z,-0.46
2022-11-17T12:07:04.873Z,-0.55
2022-11-17T12:09:42.333Z,-0.40
2022-11-17T12:12:15.820Z,-0.50
2022-11-17T12:15:20.906Z,-0.43
2022-11-17T12:18:11.558Z,-0.38
2022-11-17T12:20:38.425Z,-0.50
2022-11-17T12:23:10.914Z,-0.68
2022-11-17T12:25:50.575Z,-0.79
2022-11-17T12:28:38.467Z,-1.10
2022-11-17T12:31:10.013Z,-0.85
2022-11-17T12:34:00.986Z,-0.86
2022-11-17T12:36:32.112Z,-0.81
2022-11-17T12:39:01.368Z,-0.88
2022-11-17T12:41:48.797Z,-0.91
2022-11-17T12:44:37.532Z,-0.93
2022-11-17T12:47:17.167Z,-1.01
2022-11-17T12:49:59.661Z,-0.87
2022-11-17T12:52:44.993Z,-0.79
2022-11-17T12:55:51.996Z,-0.80
2022-11-17T12:58:25.176Z,-0.78
2022-11-17T13:00:54.884Z,-0.91
2022-11-17T13:03:34.604Z,-1.10
2022-11-17T13:06:33.921Z,-1.17
2022-11-17T13:08:58.502Z,-1.25
2022-11-17T13:11:26.361Z,-1.31
2022-11-17T13:14:13.701Z,-1.27
2022-11-17T13:16:50.981Z,-1.38
2022-11-17T13:19:38.784Z,-1.46
2022-11-17T13:22:11.677Z,-1.56
2022-11-17T13:24:41.166Z,-1.55
2022-11-17T13:27:18.846Z,-1.50
2022-11-17T13:29:45.887Z,-1.40
2022-11-17T13:32:24.765Z,-1.41
2022-11-17T13:34:57.144Z,-1.41
2022-11-17T13:37:27.071Z,-1.53
2022-11-17T13:39:56.114Z,-1.60
2022-11-17T13:42:24.559Z,-1.71
2022-11-17T13:44:54.654Z,-1.84
2022-11-17T13:47:50.770Z,-1.80
2022-11-17T13:50:26.919Z,-1.77
2022-11-17T13:52:55.750Z,-1.94
2022-11-17T13:55:24.179Z,-1.92
2022-11-17T13:57:58.683Z,-1.91
2022-11-17T14:00:26.077Z,-1.97
2022-11-17T14:02:58.470Z,-2.02
2022-11-17T14:05:27.649Z,-2.11
2022-11-17T14:07:57.057Z,-2.13
2022-11-17T14:10:37.088Z,-2.25
2022-11-17T14:13:07.315Z,-2.22
2022-11-17T14:15:37.552Z,-2.36
2022-11-17T14:18:22.843Z,-2.49
2022-11-17T14:21:07.644Z,-2.43
2022-11-17T14:23:35.136Z,-2.48
2022-11-17T14:26:02.005Z,-2.39
2022-11-17T14:28:29.052Z,-2.34
2022-11-17T14:30:57.749Z,-2.31
2022-11-17T14:33:24.847Z,-2.34
2022-11-17T14:35:55.342Z,-2.44
2022-11-17T14:38:23.132Z,-2.34
2022-11-17T14:40:51.814Z,-2.53
2022-11-17T14:43:22.519Z,-2.84
2022-11-17T14:45:50.571Z,-2.95
2022-11-17T14:48:19.290Z,-3.01
2022-11-17T14:50:47.619Z,-2.99
2022-11-17T14:53:14.861Z,-3.11
2022-11-17T14:55:42.217Z,-3.17
2022-11-17T14:58:10.262Z,-3.21
2022-11-17T15:00:37.916Z,-3.40
2022-11-17T15:03:05.238Z,-3.34
2022-11-17T15:05:32.558Z,-3.37
2022-11-17T15:07:59.890Z,-3.39
2022-11-17T15:10:26.890Z,-3.41
2022-11-17T15:12:53.921Z,-3.58
2022-11-17T15:15:20.981Z,-3.50
2022-11-17T15:17:48.005Z,-3.57
2022-11-17T15:20:14.980Z,-3.57
2022-11-17T15:22:42.046Z,-3.58
2022-11-17T15:25:09.420Z,-3.61
2022-11-17T15:27:36.356Z,-3.70
2022-11-17T15:30:04.721Z,-3.77
2022-11-17T15:32:32.096Z,-3.83
2022-11-17T15:34:59.008Z,-3.79
2022-11-17T15:37:26.150Z,-3.76
2022-11-17T15:39:53.832Z,-3.77
2022-11-17T15:42:20.782Z,-3.78
2022-11-17T15:44:47.947Z,-3.80
2022-11-17T15:47:14.885Z,-3.84
2022-11-17T15:49:41.797Z,-3.82
2022-11-17T15:52:08.786Z,-3.78
2022-11-17T15:54:35.820Z,-3.71
2022-11-17T15:57:02.981Z,-3.66
2022-11-17T15:59:30.069Z,-3.57
2022-11-17T16:01:56.988Z,-3.52
2022-11-17T16:04:23.920Z,-3.44
2022-11-17T16:06:51.009Z,-3.37
2022-11-17T16:09:18.333Z,-3.42
2022-11-17T16:11:45.568Z,-3.30
2022-11-17T16:14:12.880Z,-3.66
2022-11-17T16:16:39.840Z,-3.19
2022-11-17T16:19:07.391Z,-3.19
2022-11-17T16:21:34.428Z,-3.23
2022-11-17T16:24:02.429Z,-3.17
2022-11-17T16:26:30.341Z,-3.17
2022-11-17T16:29:02.935Z,-3.24
2022-11-17T16:31:32.322Z,-3.25
2022-11-17T16:34:05.227Z,-3.35
2022-11-17T16:36:38.338Z,-3.29
2022-11-17T16:39:07.842Z,-3.26
2022-11-17T16:41:38.136Z,-3.19
2022-11-17T16:44:15.782Z,-3.13
2022-11-17T16:46:47.708Z,-3.12
2022-11-17T16:49:17.368Z,-3.14
2022-11-17T16:51:49.613Z,-3.07
2022-11-17T16:54:18.109Z,-3.03
2022-11-17T16:56:45.422Z,-3.18
2022-11-17T16:59:13.129Z,-3.12
2022-11-17T17:01:40.118Z,-3.15
2022-11-17T17:04:09.214Z,-3.03
2022-11-17T17:06:39.609Z,-3.05
2022-11-17T17:09:07.893Z,-2.92
2022-11-17T17:11:36.061Z,-3.03
2022-11-17T17:14:04.917Z,-2.98
2022-11-17T17:16:33.760Z,-2.98
2022-11-17T17:19:04.162Z,-3.01
2022-11-17T17:21:31.836Z,-3.03
2022-11-17T17:23:59.110Z,-3.17
2022-11-17T17:26:28.574Z,-3.10
2022-11-17T17:28:57.955Z,-3.15
2022-11-17T17:31:26.605Z,-3.03
2022-11-17T17:33:54.782Z,-3.17
2022-11-17T17:36:24.564Z,-2.97
2022-11-17T17:38:56.111Z,-3.14
2022-11-17T17:41:29.324Z,-3.07
2022-11-17T17:44:05.050Z,-3.04
2022-11-17T17:46:38.366Z,-3.12
2022-11-17T17:49:06.363Z,-3.07
2022-11-17T17:51:40.310Z,-3.03
2022-11-17T17:54:08.035Z,-3.04
2022-11-17T17:56:35.115Z,-3.06
2022-11-17T17:59:02.146Z,-3.10
2022-11-17T18:01:31.217Z,-3.07
2022-11-17T18:04:05.841Z,-3.32
2022-11-17T18:06:41.427Z,-3.35
2022-11-17T18:09:14.702Z,-3.19
2022-11-17T18:11:50.118Z,-3.38
2022-11-17T18:14:21.195Z,-3.38
2022-11-17T18:16:48.187Z,-3.53
2022-11-17T18:19:16.446Z,-3.40
2022-11-17T18:21:44.248Z,-3.47
2022-11-17T18:24:12.752Z,-3.44
2022-11-17T18:26:41.134Z,-3.63
2022-11-17T18:29:15.025Z,-3.56
2022-11-17T18:31:42.876Z,-3.58
2022-11-17T18:34:27.923Z,-3.50
2022-11-17T18:36:55.865Z,-3.55
2022-11-17T18:39:23.497Z,-3.53
2022-11-17T18:41:50.546Z,-3.46
2022-11-17T18:44:21.545Z,-3.35
2022-11-17T18:46:48.557Z,-3.35
2022-11-17T18:49:16.001Z,-3.51
2022-11-17T18:51:43.244Z,-3.44
2022-11-17T18:54:10.998Z,-3.36
2022-11-17T18:56:38.747Z,-3.42
2022-11-17T18:59:13.051Z,-3.39
2022-11-17T19:01:42.028Z,-3.39
2022-11-17T19:04:11.591Z,-3.55
2022-11-17T19:06:38.474Z,-3.51
2022-11-17T19:09:06.179Z,-3.55
2022-11-17T19:11:34.573Z,-3.53
2022-11-17T19:14:02.501Z,-3.51
2022-11-17T19:16:29.704Z,-3.69
2022-11-17T19:18:56.861Z,-3.55
2022-11-17T19:21:28.009Z,-3.63
2022-11-17T19:23:57.988Z,-3.57
2022-11-17T19:26:30.629Z,-3.67
2022-11-17T19:29:00.051Z,-3.71
2022-11-17T19:31:28.359Z,-3.69
2022-11-17T19:33:56.261Z,-3.78
2022-11-17T19:36:27.563Z,-3.71
2022-11-17T19:38:56.847Z,-3.79
2022-11-17T19:41:24.969Z,-3.76
2022-11-17T19:44:01.058Z,-3.84
2022-11-17T19:46:29.059Z,-3.90
2022-11-17T19:48:57.253Z,-3.93
2022-11-17T19:51:27.002Z,-3.86
2022-11-17T19:53:55.959Z,-3.88
2022-11-17T19:56:24.333Z,-3.87
2022-11-17T19:58:52.681Z,-3.94
2022-11-17T20:01:22.710Z,-3.85
2022-11-17T20:03:50.550Z,-3.98
2022-11-17T20:06:20.750Z,-3.86
2022-11-17T20:08:48.510Z,-3.89
2022-11-17T20:11:16.954Z,-3.83
2022-11-17T20:13:44.564Z,-3.91
2022-11-17T20:16:24.661Z,-3.90
2022-11-17T20:18:57.076Z,-3.91
2022-11-17T20:21:25.785Z,-3.95
2022-11-17T20:23:53.242Z,-4.05
2022-11-17T20:26:25.747Z,-4.16
2022-11-17T20:28:53.927Z,-3.96
2022-11-17T20:31:32.247Z,-3.97
2022-11-17T20:34:00.916Z,-4.05
2022-11-17T20:36:30.152Z,-4.09
2022-11-17T20:39:00.266Z,-4.00
2022-11-17T20:41:28.406Z,-4.18
2022-11-17T20:43:57.049Z,-4.21
2022-11-17T20:46:25.043Z,-4.16
2022-11-17T20:48:52.556Z,-4.30
2022-11-17T20:51:24.829Z,-4.22
2022-11-17T20:53:52.101Z,-4.22
2022-11-17T20:56:19.975Z,-4.10
2022-11-17T20:58:47.080Z,-4.08
2022-11-17T21:01:18.813Z,-4.09
2022-11-17T21:03:46.145Z,-4.03
2022-11-17T21:06:14.270Z,-4.17
2022-11-17T21:08:42.534Z,-4.18
2022-11-17T21:11:36.294Z,-4.09
2022-11-17T21:14:08.224Z,-4.20
2022-11-17T21:16:37.618Z,-4.14
2022-11-17T21:19:05.053Z,-4.21
2022-11-17T21:21:32.051Z,-4.22
2022-11-17T21:24:00.021Z,-4.29
2022-11-17T21:26:28.004Z,-4.21
2022-11-17T21:28:55.435Z,-4.21
2022-11-17T21:31:24.952Z,-4.29
2022-11-17T21:33:58.099Z,-4.26
2022-11-17T21:36:27.051Z,-4.18
2022-11-17T21:38:55.130Z,-4.16
2022-11-17T21:41:24.446Z,-4.12
2022-11-17T21:43:54.068Z,-4.17
2022-11-17T21:46:23.405Z,-4.08
2022-11-17T21:48:51.518Z,-4.01
2022-11-17T21:51:34.650Z,-4.04
2022-11-17T21:54:03.867Z,-3.98
2022-11-17T21:56:32.226Z,-4.31
2022-11-17T21:59:01.539Z,-4.04
2022-11-17T22:01:29.431Z,-4.12
2022-11-17T22:03:57.026Z,-4.41
2022-11-17T22:06:25.180Z,-4.41
2022-11-17T22:08:54.108Z,-4.41
2022-11-17T22:11:36.719Z,-4.27
2022-11-17T22:14:05.165Z,-4.22
2022-11-17T22:16:32.694Z,-4.24
2022-11-17T22:18:59.654Z,-4.19
2022-11-17T22:21:26.555Z,-4.09
2022-11-17T22:23:53.458Z,-4.01
2022-11-17T22:26:20.738Z,-3.94
2022-11-17T22:28:55.036Z,-3.84
2022-11-17T22:31:22.771Z,-3.85
2022-11-17T22:33:50.458Z,-3.85
2022-11-17T22:36:18.264Z,-4.05
2022-11-17T22:38:48.970Z,-4.17
2022-11-17T22:41:15.835Z,-4.29
2022-11-17T22:43:42.660Z,-4.29
2022-11-17T22:46:11.678Z,-4.16
2022-11-17T22:48:38.876Z,-4.16
2022-11-17T22:51:06.079Z,-4.20
2022-11-17T22:53:34.009Z,-4.35
2022-11-17T22:56:02.911Z,-4.29
2022-11-17T22:58:30.143Z,-4.26
2022-11-17T23:00:57.140Z,-4.15
2022-11-17T23:03:24.325Z,-4.10
2022-11-17T23:05:51.363Z,-4.14
2022-11-17T23:08:18.319Z,-4.22
2022-11-17T23:10:45.293Z,-4.16
2022-11-17T23:13:12.218Z,-4.10
2022-11-17T23:15:39.528Z,-4.12
2022-11-17T23:18:06.541Z,-4.19
2022-11-17T23:20:33.512Z,-4.21
2022-11-17T23:23:00.439Z,-4.25
2022-11-17T23:25:27.318Z,-4.22
2022-11-17T23:27:54.301Z,-4.27
2022-11-17T23:30:21.209Z,-4.60
2022-11-17T23:32:48.128Z,-4.32
2022-11-17T23:35:15.118Z,-4.27
2022-11-17T23:37:42.006Z,-4.31
2022-11-17T23:40:09.818Z,-4.33
2022-11-17T23:42:42.710Z,-4.42
2022-11-17T23:45:12.096Z,-4.48
2022-11-17T23:47:39.490Z,-4.37
2022-11-17T23:50:06.943Z,-4.49
2022-11-17T23:52:33.966Z,-4.36
2022-11-17T23:55:01.032Z,-4.26
2022-11-17T23:57:30.098Z,-4.23
2022-11-17T23:59:57.048Z,-4.45
